createdAt,value
2022-10-17T00:00:16.139Z,13.01
2022-10-17T00:02:42.487Z,12.96
2022-10-17T00:05:08.979Z,12.95
2022-10-17T00:07:35.338Z,12.90
2022-10-17T00:10:01.724Z,12.87
2022-10-17T00:12:28.130Z,12.83
2022-10-17T00:14:54.503Z,12.81
2022-10-17T00:17:20.867Z,12.76
2022-10-17T00:19:47.277Z,12.73
2022-10-17T00:22:14.752Z,12.75
2022-10-17T00:24:41.122Z,12.76
2022-10-17T00:27:07.988Z,12.77
2022-10-17T00:29:34.343Z,12.78
2022-10-17T00:32:00.688Z,12.79
2022-10-17T00:34:29.098Z,12.77
2022-10-17T00:36:55.436Z,12.74
2022-10-17T00:39:21.815Z,12.76
2022-10-17T00:41:48.189Z,12.75
2022-10-17T00:44:29.884Z,12.76
2022-10-17T00:47:06.462Z,12.77
2022-10-17T00:49:35.561Z,12.79
2022-10-17T00:52:15.812Z,12.80
2022-10-17T00:54:49.400Z,12.78
2022-10-17T00:57:16.811Z,12.82
2022-10-17T00:59:47.021Z,12.82
2022-10-17T01:02:16.339Z,12.82
2022-10-17T01:04:45.065Z,12.80
2022-10-17T01:07:11.406Z,12.78
2022-10-17T01:09:39.551Z,12.74
2022-10-17T01:12:16.738Z,12.69
2022-10-17T01:15:01.313Z,12.65
2022-10-17T01:17:58.015Z,12.61
2022-10-17T01:20:53.049Z,12.55
2022-10-17T01:23:41.048Z,12.53
2022-10-17T01:26:45.327Z,12.55
2022-10-17T01:29:28.206Z,12.61
2022-10-17T01:32:14.711Z,12.69
2022-10-17T01:34:48.172Z,12.72
2022-10-17T01:37:44.813Z,12.73
2022-10-17T01:40:27.186Z,12.71
2022-10-17T01:43:04.221Z,12.74
2022-10-17T01:45:48.918Z,12.73
2022-10-17T01:48:24.977Z,12.72
2022-10-17T01:51:06.487Z,12.71
2022-10-17T01:53:36.776Z,12.72
2022-10-17T01:56:06.983Z,12.72
2022-10-17T01:58:41.082Z,12.74
2022-10-17T02:01:11.023Z,12.72
2022-10-17T02:03:40.732Z,12.70
2022-10-17T02:06:07.834Z,12.69
2022-10-17T02:08:46.175Z,12.67
2022-10-17T02:11:14.836Z,12.73
2022-10-17T02:14:06.312Z,12.70
2022-10-17T02:16:35.583Z,12.72
2022-10-17T02:19:14.595Z,12.77
2022-10-17T02:22:18.569Z,12.85
2022-10-17T02:24:50.936Z,12.88
2022-10-17T02:27:37.330Z,12.91
2022-10-17T02:30:10.945Z,12.93
2022-10-17T02:32:48.110Z,12.95
2022-10-17T02:35:19.556Z,12.92
2022-10-17T02:37:47.700Z,12.96
2022-10-17T02:40:17.102Z,12.97
2022-10-17T02:42:45.535Z,12.97
2022-10-17T02:45:14.367Z,13.02
2022-10-17T02:47:54.135Z,13.09
2022-10-17T02:53:04.922Z,13.13
2022-10-17T02:55:36.104Z,13.14
2022-10-17T02:58:26.363Z,13.15
2022-10-17T03:00:53.038Z,13.18
2022-10-17T03:03:24.087Z,13.22
2022-10-17T03:05:50.614Z,13.20
2022-10-17T03:08:16.994Z,13.17
2022-10-17T03:10:43.355Z,13.16
2022-10-17T03:13:09.861Z,13.15
2022-10-17T03:15:36.396Z,13.20
2022-10-17T03:18:03.770Z,13.25
2022-10-17T03:20:30.523Z,13.25
2022-10-17T03:22:56.862Z,13.28
2022-10-17T03:25:23.228Z,13.37
2022-10-17T03:27:49.760Z,13.44
2022-10-17T03:30:16.226Z,13.51
2022-10-17T03:32:42.568Z,13.49
2022-10-17T03:35:14.009Z,13.48
2022-10-17T03:37:41.554Z,13.51
2022-10-17T03:40:08.297Z,13.55
2022-10-17T03:42:34.645Z,13.60
2022-10-17T03:45:01.011Z,13.61
2022-10-17T03:47:29.348Z,13.66
2022-10-17T03:49:55.899Z,13.73
2022-10-17T03:52:22.354Z,13.70
2022-10-17T03:54:50.121Z,13.69
2022-10-17T03:57:17.246Z,13.71
2022-10-17T03:59:43.591Z,13.70
2022-10-17T04:02:10.036Z,13.73
2022-10-17T04:04:36.462Z,13.73
2022-10-17T04:07:03.062Z,13.74
2022-10-17T04:09:29.417Z,13.77
2022-10-17T04:11:55.782Z,13.78
2022-10-17T04:14:22.178Z,13.78
2022-10-17T04:16:48.512Z,13.78
2022-10-17T04:19:14.933Z,13.81
2022-10-17T04:21:41.290Z,13.80
2022-10-17T04:24:10.796Z,13.81
2022-10-17T04:26:37.151Z,13.80
2022-10-17T04:29:03.668Z,13.80
2022-10-17T04:31:30.040Z,13.77
2022-10-17T04:33:56.654Z,13.77
2022-10-17T04:36:23.368Z,13.77
2022-10-17T04:38:49.711Z,13.75
2022-10-17T04:41:17.769Z,13.75
2022-10-17T04:43:47.058Z,13.77
2022-10-17T04:46:16.719Z,13.79
2022-10-17T04:48:43.216Z,13.80
2022-10-17T04:51:20.636Z,13.84
2022-10-17T04:53:49.642Z,13.91
2022-10-17T04:56:19.006Z,13.95
2022-10-17T04:58:45.875Z,14.00
2022-10-17T05:01:15.062Z,13.97
2022-10-17T05:03:42.311Z,13.97
2022-10-17T05:06:28.996Z,14.00
2022-10-17T05:08:55.673Z,14.05
2022-10-17T05:11:24.458Z,14.08
2022-10-17T05:14:01.663Z,14.06
2022-10-17T05:16:29.203Z,14.05
2022-10-17T05:18:57.701Z,14.08
2022-10-17T05:21:26.070Z,14.10
2022-10-17T05:23:53.243Z,14.10
2022-10-17T05:26:19.965Z,14.11
2022-10-17T05:28:46.487Z,14.11
2022-10-17T05:31:13.404Z,14.13
2022-10-17T05:33:40.496Z,14.14
2022-10-17T05:36:07.663Z,14.16
2022-10-17T05:38:34.426Z,14.19
2022-10-17T05:41:03.559Z,14.22
2022-10-17T05:43:30.259Z,14.24
2022-10-17T05:45:56.862Z,14.26
2022-10-17T05:48:24.076Z,14.36
2022-10-17T05:50:57.027Z,14.38
2022-10-17T05:53:23.414Z,14.37
2022-10-17T05:56:05.075Z,14.35
2022-10-17T05:58:49.295Z,14.36
2022-10-17T06:01:17.034Z,14.34
2022-10-17T06:03:43.559Z,14.36
2022-10-17T06:06:12.509Z,14.42
2022-10-17T06:08:39.203Z,14.42
2022-10-17T06:11:09.169Z,14.44
2022-10-17T06:13:36.775Z,14.47
2022-10-17T06:16:03.173Z,14.48
2022-10-17T06:18:29.589Z,14.51
2022-10-17T06:21:05.453Z,14.51
2022-10-17T06:23:32.494Z,14.54
2022-10-17T06:26:00.510Z,14.58
2022-10-17T06:28:55.898Z,14.59
2022-10-17T06:31:22.533Z,14.69
2022-10-17T06:33:48.919Z,14.74
2022-10-17T06:36:15.383Z,14.77
2022-10-17T06:38:41.917Z,14.88
2022-10-17T06:41:18.532Z,15.11
2022-10-17T06:43:46.876Z,15.18
2022-10-17T06:46:15.339Z,15.20
2022-10-17T06:48:41.962Z,15.16
2022-10-17T06:51:11.803Z,15.12
2022-10-17T06:53:39.912Z,15.11
2022-10-17T06:56:08.082Z,15.10
2022-10-17T07:02:24.936Z,15.11
2022-10-17T07:04:58.039Z,15.12
2022-10-17T07:07:58.842Z,15.16
2022-10-17T07:10:38.045Z,15.14
2022-10-17T07:13:06.113Z,15.14
2022-10-17T07:22:17.072Z,15.24
2022-10-17T07:25:04.779Z,15.25
2022-10-17T07:28:03.565Z,15.27
2022-10-17T07:33:47.796Z,15.27
2022-10-17T07:37:00.841Z,15.28
2022-10-17T07:39:27.314Z,15.28
2022-10-17T07:41:53.753Z,15.30
2022-10-17T07:44:20.402Z,15.32
2022-10-17T07:46:46.770Z,15.31
2022-10-17T07:49:13.200Z,15.34
2022-10-17T07:51:39.626Z,15.36
2022-10-17T07:54:06.473Z,15.35
2022-10-17T07:56:33.291Z,15.35
2022-10-17T08:12:34.377Z,15.39
2022-10-17T08:19:01.924Z,15.40
2022-10-17T08:22:14.772Z,15.38
2022-10-17T08:24:42.772Z,15.39
2022-10-17T08:27:11.465Z,15.42
2022-10-17T08:29:39.016Z,15.45
2022-10-17T08:32:08.952Z,15.48
2022-10-17T08:34:36.186Z,15.54
2022-10-17T08:37:02.901Z,15.58
2022-10-17T08:39:29.271Z,15.61
2022-10-17T08:42:33.457Z,15.63
2022-10-17T08:45:12.165Z,15.68
2022-10-17T08:47:42.506Z,15.70
2022-10-17T08:50:18.170Z,15.72
2022-10-17T08:53:12.613Z,15.75
2022-10-17T08:55:50.465Z,15.76
2022-10-17T08:58:32.851Z,15.78
2022-10-17T09:01:13.630Z,15.79
2022-10-17T09:03:43.460Z,15.80
2022-10-17T09:06:24.410Z,15.82
2022-10-17T09:12:28.563Z,15.85
2022-10-17T09:15:29.100Z,15.89
2022-10-17T09:18:00.921Z,15.93
2022-10-17T09:20:32.321Z,15.96
2022-10-17T09:23:02.802Z,15.99
2022-10-17T09:25:43.783Z,16.02
2022-10-17T09:28:10.285Z,16.03
2022-10-17T09:30:45.476Z,16.04
2022-10-17T09:33:34.735Z,16.04
2022-10-17T09:36:05.865Z,16.03
2022-10-17T09:38:51.792Z,16.00
2022-10-17T09:41:52.720Z,16.02
2022-10-17T09:44:33.966Z,16.01
2022-10-17T09:47:06.372Z,16.01
2022-10-17T09:49:35.829Z,16.03
2022-10-17T09:52:13.830Z,16.05
2022-10-17T09:54:47.063Z,16.10
2022-10-17T09:57:15.121Z,16.17
2022-10-17T09:59:57.170Z,16.21
2022-10-17T10:02:25.669Z,16.25
2022-10-17T10:05:08.547Z,16.30
2022-10-17T10:07:38.471Z,16.35
2022-10-17T10:10:14.294Z,16.38
2022-10-17T10:12:40.631Z,16.36
2022-10-17T10:15:33.887Z,16.37
2022-10-17T10:18:00.301Z,16.39
2022-10-17T10:20:37.844Z,16.40
2022-10-17T10:23:19.373Z,16.44
2022-10-17T10:25:56.652Z,16.47
2022-10-17T10:28:29.482Z,16.48
2022-10-17T10:30:57.550Z,16.45
2022-10-17T10:33:28.254Z,16.44
2022-10-17T10:36:04.315Z,16.41
2022-10-17T10:38:33.262Z,16.41
2022-10-17T10:41:07.331Z,16.44
2022-10-17T10:43:43.947Z,16.46
2022-10-17T10:46:39.669Z,16.50
2022-10-17T10:49:32.265Z,16.54
2022-10-17T10:52:02.153Z,16.56
2022-10-17T10:57:10.759Z,16.57
2022-10-17T10:59:47.051Z,16.59
2022-10-17T11:02:29.672Z,16.57
2022-10-17T11:05:03.420Z,16.56
2022-10-17T11:07:45.703Z,16.61
2022-10-17T11:10:22.749Z,16.67
2022-10-17T11:13:21.752Z,16.70
2022-10-17T11:15:55.648Z,16.78
2022-10-17T11:18:45.381Z,16.85
2022-10-17T11:21:28.777Z,16.89
2022-10-17T11:24:26.793Z,16.93
2022-10-17T11:27:01.114Z,16.99
2022-10-17T11:29:31.358Z,17.05
2022-10-17T11:32:04.412Z,17.02
2022-10-17T11:34:37.376Z,16.98
2022-10-17T11:37:21.622Z,16.94
2022-10-17T11:40:05.982Z,16.90
2022-10-17T11:42:50.250Z,16.84
2022-10-17T11:45:19.058Z,16.82
2022-10-17T11:47:49.723Z,16.80
2022-10-17T11:57:07.146Z,16.85
2022-10-17T12:00:09.036Z,16.86
2022-10-17T12:02:54.385Z,16.89
2022-10-17T12:05:47.707Z,16.97
2022-10-17T12:09:13.742Z,17.07
2022-10-17T12:11:56.527Z,17.15
2022-10-17T12:14:40.000Z,17.21
2022-10-17T12:17:21.846Z,17.24
2022-10-17T12:20:24.588Z,17.28
2022-10-17T12:23:03.285Z,17.32
2022-10-17T12:25:33.665Z,17.33
2022-10-17T12:28:06.287Z,17.29
2022-10-17T12:30:33.133Z,17.30
2022-10-17T12:33:22.938Z,17.26
2022-10-17T12:36:21.195Z,17.23
2022-10-17T12:39:02.845Z,17.16
2022-10-17T12:41:38.490Z,17.15
2022-10-17T12:44:14.313Z,17.13
2022-10-17T12:46:47.880Z,17.15
2022-10-17T12:49:40.004Z,17.13
2022-10-17T12:52:18.434Z,17.12
2022-10-17T12:55:00.354Z,17.07
2022-10-17T12:57:47.123Z,17.01
2022-10-17T13:00:25.356Z,16.97
2022-10-17T13:02:56.351Z,16.94
2022-10-17T13:05:34.080Z,16.94
2022-10-17T13:08:03.986Z,16.92
2022-10-17T13:10:35.060Z,16.90
2022-10-17T13:13:22.898Z,16.89
2022-10-17T13:15:51.886Z,16.86
2022-10-17T13:18:22.723Z,16.80
2022-10-17T13:21:06.853Z,16.80
2022-10-17T13:23:35.961Z,16.81
2022-10-17T13:26:06.893Z,16.85
2022-10-17T13:28:38.413Z,16.86
2022-10-17T13:31:06.365Z,16.86
2022-10-17T13:33:38.933Z,16.85
2022-10-17T13:36:15.684Z,16.87
2022-10-17T13:38:42.893Z,16.92
2022-10-17T13:44:02.490Z,17.08
2022-10-17T13:46:39.565Z,17.11
2022-10-17T13:49:25.800Z,17.15
2022-10-17T13:51:54.001Z,17.16
2022-10-17T13:54:37.751Z,17.16
2022-10-17T13:57:06.061Z,17.17
2022-10-17T13:59:38.635Z,17.13
2022-10-17T14:02:12.400Z,17.16
2022-10-17T14:05:04.094Z,17.17
2022-10-17T14:07:46.323Z,17.15
2022-10-17T14:10:41.139Z,17.18
2022-10-17T14:13:44.296Z,17.23
2022-10-17T14:16:10.876Z,17.25
2022-10-17T14:21:57.108Z,17.27
2022-10-17T14:24:23.760Z,17.27
2022-10-17T14:27:00.491Z,17.25
2022-10-17T14:29:28.360Z,17.25
2022-10-17T14:32:14.966Z,17.31
2022-10-17T14:34:41.710Z,17.35
2022-10-17T14:37:35.638Z,17.45
2022-10-17T14:40:04.849Z,17.55
2022-10-17T14:42:31.553Z,17.59
2022-10-17T14:45:21.316Z,17.67
2022-10-17T14:47:51.854Z,17.71
2022-10-17T14:50:25.114Z,17.73
2022-10-17T14:53:10.187Z,17.72
2022-10-17T14:55:38.692Z,17.66
2022-10-17T15:00:45.917Z,17.54
2022-10-17T15:03:13.787Z,17.48
2022-10-17T15:05:40.290Z,17.42
2022-10-17T15:08:14.408Z,17.35
2022-10-17T15:10:41.956Z,17.30
2022-10-17T15:13:28.001Z,17.29
2022-10-17T15:15:55.501Z,17.27
2022-10-17T15:18:21.925Z,17.23
2022-10-17T15:20:52.701Z,17.19
2022-10-17T15:23:27.060Z,17.18
2022-10-17T15:25:53.693Z,17.15
2022-10-17T15:28:20.134Z,17.14
2022-10-17T15:30:46.561Z,17.13
2022-10-17T15:33:13.012Z,17.13
2022-10-17T15:35:39.380Z,17.11
2022-10-17T15:38:07.101Z,17.10
2022-10-17T15:40:33.467Z,17.05
2022-10-17T15:42:59.877Z,16.99
2022-10-17T15:45:26.366Z,16.95
2022-10-17T15:47:55.377Z,16.91
2022-10-17T15:50:21.853Z,16.87
2022-10-17T15:52:52.494Z,16.82
2022-10-17T15:55:19.861Z,16.75
2022-10-17T15:57:48.139Z,16.70
2022-10-17T16:00:20.700Z,16.64
2022-10-17T16:02:47.884Z,16.58
2022-10-17T16:05:18.172Z,16.53
2022-10-17T16:07:46.717Z,16.47
2022-10-17T16:10:14.150Z,16.41
2022-10-17T16:12:41.299Z,16.37
2022-10-17T16:15:14.926Z,16.33
2022-10-17T16:17:41.675Z,16.26
2022-10-17T16:20:08.470Z,16.21
2022-10-17T16:22:38.458Z,16.17
2022-10-17T16:25:10.164Z,16.11
2022-10-17T16:27:37.753Z,16.06
2022-10-17T16:30:06.398Z,16.01
2022-10-17T16:32:33.414Z,15.96
2022-10-17T16:35:00.020Z,15.92
2022-10-17T16:37:27.152Z,15.87
2022-10-17T16:39:53.639Z,15.82
2022-10-17T16:42:20.596Z,15.78
2022-10-17T16:44:48.409Z,15.74
2022-10-17T16:47:15.203Z,15.70
2022-10-17T16:49:44.409Z,15.66
2022-10-17T16:52:12.171Z,15.61
2022-10-17T16:54:38.618Z,15.59
2022-10-17T16:57:04.989Z,15.54
2022-10-17T16:59:31.373Z,15.51
2022-10-17T17:01:57.700Z,15.47
2022-10-17T17:04:24.200Z,15.44
2022-10-17T17:06:50.573Z,15.40
2022-10-17T17:09:17.077Z,15.38
2022-10-17T17:11:43.432Z,15.33
2022-10-17T17:14:10.840Z,15.31
2022-10-17T17:16:37.237Z,15.29
2022-10-17T17:19:07.072Z,15.27
2022-10-17T17:21:34.631Z,15.26
2022-10-17T17:24:02.253Z,15.24
2022-10-17T17:26:32.572Z,15.24
2022-10-17T17:29:00.114Z,15.22
2022-10-17T17:31:29.007Z,15.18
2022-10-17T17:36:29.812Z,15.16
2022-10-17T17:38:58.831Z,15.14
2022-10-17T17:41:26.229Z,15.12
2022-10-17T17:43:52.792Z,15.10
2022-10-17T17:46:21.057Z,15.09
2022-10-17T17:48:48.947Z,15.07
2022-10-17T17:51:18.949Z,15.07
2022-10-17T17:53:45.814Z,15.03
2022-10-17T17:56:14.838Z,15.01
2022-10-17T17:58:45.794Z,15.00
2022-10-17T18:01:19.692Z,14.98
2022-10-17T18:03:46.816Z,14.98
2022-10-17T18:06:13.829Z,14.98
2022-10-17T18:08:43.328Z,14.97
2022-10-17T18:11:09.783Z,14.96
2022-10-17T18:13:36.258Z,14.95
2022-10-17T18:16:02.827Z,14.95
2022-10-17T18:18:30.454Z,14.93
2022-10-17T18:20:56.822Z,14.93
2022-10-17T18:23:23.736Z,14.92
2022-10-17T18:25:58.359Z,14.90
2022-10-17T18:28:25.674Z,14.88
2022-10-17T18:30:52.158Z,14.88
2022-10-17T18:33:18.941Z,14.86
2022-10-17T18:35:45.878Z,14.85
2022-10-17T18:38:12.468Z,14.85
2022-10-17T18:40:38.941Z,14.85
2022-10-17T18:43:05.328Z,14.83
2022-10-17T18:45:32.173Z,14.81
2022-10-17T18:47:58.566Z,14.79
2022-10-17T18:50:25.577Z,14.77
2022-10-17T18:52:51.939Z,14.78
2022-10-17T18:55:20.423Z,14.78
2022-10-17T18:57:49.176Z,14.75
2022-10-17T19:00:17.186Z,14.75
2022-10-17T19:02:43.594Z,14.73
2022-10-17T19:05:10.122Z,14.70
2022-10-17T19:07:36.614Z,14.69
2022-10-17T19:10:03.979Z,14.66
2022-10-17T19:12:30.557Z,14.64
2022-10-17T19:14:57.322Z,14.62
2022-10-17T19:17:23.639Z,14.61
2022-10-17T19:19:52.128Z,14.56
2022-10-17T19:22:18.657Z,14.53
2022-10-17T19:24:46.214Z,14.54
2022-10-17T19:27:12.601Z,14.53
2022-10-17T19:29:43.410Z,14.49
2022-10-17T19:32:15.624Z,14.48
2022-10-17T19:34:44.516Z,14.45
2022-10-17T19:37:11.172Z,14.43
2022-10-17T19:39:37.696Z,14.42
2022-10-17T19:42:06.742Z,14.41
2022-10-17T19:44:34.053Z,14.39
2022-10-17T19:47:00.430Z,14.38
2022-10-17T19:49:26.867Z,14.36
2022-10-17T19:51:53.246Z,14.35
2022-10-17T19:54:20.287Z,14.33
2022-10-17T19:56:46.906Z,14.31
2022-10-17T19:59:15.064Z,14.28
2022-10-17T20:01:41.728Z,14.22
2022-10-17T20:04:10.705Z,14.16
2022-10-17T20:06:37.309Z,14.07
2022-10-17T20:09:05.237Z,14.06
2022-10-17T20:11:32.013Z,14.10
2022-10-17T20:14:00.106Z,14.12
2022-10-17T20:16:29.068Z,14.17
2022-10-17T20:18:57.287Z,14.20
2022-10-17T20:21:35.135Z,14.18
2022-10-17T20:24:02.913Z,14.14
2022-10-17T20:26:38.988Z,14.15
2022-10-17T20:29:15.300Z,14.13
2022-10-17T20:31:43.566Z,14.08
2022-10-17T20:34:13.662Z,14.05
2022-10-17T20:36:40.657Z,14.03
2022-10-17T20:39:07.424Z,14.01
2022-10-17T20:41:34.475Z,13.98
2022-10-17T20:44:00.993Z,13.98
2022-10-17T20:46:36.871Z,13.96
2022-10-17T20:49:05.611Z,13.94
2022-10-17T20:51:31.976Z,13.93
2022-10-17T20:53:58.574Z,13.96
2022-10-17T20:56:27.194Z,14.01
2022-10-17T20:58:59.721Z,14.01
2022-10-17T21:01:27.239Z,13.98
2022-10-17T21:03:54.033Z,14.06
2022-10-17T21:06:21.343Z,14.08
2022-10-17T21:08:48.456Z,14.10
2022-10-17T21:11:22.045Z,14.11
2022-10-17T21:13:54.813Z,14.15
2022-10-17T21:16:21.186Z,14.11
2022-10-17T21:18:49.294Z,14.10
2022-10-17T21:21:18.654Z,14.06
2022-10-17T21:23:47.336Z,14.05
2022-10-17T21:26:14.677Z,14.05
2022-10-17T21:28:42.694Z,14.03
2022-10-17T21:31:11.420Z,14.01
2022-10-17T21:33:38.556Z,13.99
2022-10-17T21:36:05.546Z,13.97
2022-10-17T21:38:33.960Z,13.95
2022-10-17T21:41:00.561Z,13.90
2022-10-17T21:43:26.945Z,13.89
2022-10-17T21:45:53.292Z,13.90
2022-10-17T21:48:19.695Z,13.90
2022-10-17T21:50:46.057Z,13.89
2022-10-17T21:53:12.473Z,13.85
2022-10-17T21:55:38.856Z,13.80
2022-10-17T21:58:05.297Z,13.77
2022-10-17T22:00:31.690Z,13.74
2022-10-17T22:02:58.031Z,13.74
2022-10-17T22:05:24.563Z,13.75
2022-10-17T22:07:50.911Z,13.75
2022-10-17T22:10:17.346Z,13.75
2022-10-17T22:12:43.731Z,13.73
2022-10-17T22:15:10.234Z,13.70
2022-10-17T22:17:36.637Z,13.64
2022-10-17T22:20:03.254Z,13.60
2022-10-17T22:22:30.473Z,13.54
2022-10-17T22:24:56.815Z,13.50
2022-10-17T22:27:23.183Z,13.47
2022-10-17T22:29:49.516Z,13.46
2022-10-17T22:32:20.048Z,13.44
2022-10-17T22:34:48.844Z,13.41
2022-10-17T22:37:15.429Z,13.38
2022-10-17T22:39:41.818Z,13.33
2022-10-17T22:42:08.195Z,13.31
2022-10-17T22:44:34.558Z,13.32
2022-10-17T22:47:00.927Z,13.33
2022-10-17T22:49:27.412Z,13.34
2022-10-17T22:51:53.737Z,13.35
2022-10-17T22:54:20.075Z,13.35
2022-10-17T22:56:46.402Z,13.37
2022-10-17T22:59:12.748Z,13.37
2022-10-17T23:01:39.129Z,13.39
2022-10-17T23:04:05.576Z,13.36
2022-10-17T23:06:32.121Z,13.28
2022-10-17T23:08:58.860Z,13.25
2022-10-17T23:11:25.319Z,13.27
2022-10-17T23:13:51.671Z,13.25
2022-10-17T23:16:18.059Z,13.25
2022-10-17T23:18:44.414Z,13.23
2022-10-17T23:21:11.693Z,13.21
2022-10-17T23:23:38.092Z,13.19
2022-10-17T23:26:14.434Z,13.18
2022-10-17T23:28:42.195Z,13.17
2022-10-17T23:31:16.673Z,13.15
2022-10-17T23:33:44.924Z,13.13
2022-10-17T23:36:14.125Z,13.09
2022-10-17T23:38:41.762Z,13.08
2022-10-17T23:41:08.743Z,13.05
2022-10-17T23:43:35.171Z,13.08
2022-10-17T23:46:02.824Z,13.06
2022-10-17T23:48:29.570Z,13.02
2022-10-17T23:50:56.066Z,12.97
2022-10-17T23:53:23.973Z,12.91
2022-10-17T23:55:51.385Z,12.80
2022-10-17T23:58:18.334Z,12.67
